createdAt,value
2022-12-04T00:01:11.411Z,75.30
2022-12-04T00:03:39.565Z,75.20
2022-12-04T00:06:18.106Z,75.30
2022-12-04T00:08:46.547Z,75.30
2022-12-04T00:11:15.872Z,75.30
2022-12-04T00:13:43.135Z,75.20
2022-12-04T00:16:15.153Z,75.20
2022-12-04T00:18:42.048Z,75.20
2022-12-04T00:21:12.380Z,75.20
2022-12-04T00:23:40.352Z,75.30
2022-12-04T00:26:10.818Z,75.30
2022-12-04T00:28:38.568Z,75.40
2022-12-04T00:31:10.317Z,75.30
2022-12-04T00:33:37.691Z,75.40
2022-12-04T00:36:08.314Z,75.40
2022-12-04T00:38:36.120Z,75.40
2022-12-04T00:41:03.346Z,75.40
2022-12-04T00:43:31.481Z,75.30
2022-12-04T00:45:58.667Z,75.20
2022-12-04T00:48:25.521Z,75.20
2022-12-04T00:50:54.442Z,75.20
2022-12-04T00:53:22.086Z,75.20
2022-12-04T00:55:49.057Z,75.20
2022-12-04T00:58:15.885Z,75.20
2022-12-04T01:00:43.541Z,75.20
2022-12-04T01:03:10.550Z,75.20
2022-12-04T01:05:41.835Z,75.30
2022-12-04T01:08:08.957Z,75.30
2022-12-04T01:10:37.568Z,75.40
2022-12-04T01:13:04.303Z,75.40
2022-12-04T01:15:31.253Z,75.40
2022-12-04T01:17:58.193Z,75.50
2022-12-04T01:20:25.001Z,75.40
2022-12-04T01:22:51.676Z,75.40
2022-12-04T01:25:18.446Z,75.40
2022-12-04T01:27:45.409Z,75.40
2022-12-04T01:30:12.427Z,75.40
2022-12-04T01:32:39.158Z,75.30
2022-12-04T01:35:06.286Z,75.30
2022-12-04T01:37:33.154Z,75.30
2022-12-04T01:39:59.917Z,75.30
2022-12-04T01:42:26.851Z,75.30
2022-12-04T01:45:12.224Z,75.20
2022-12-04T01:47:43.282Z,75.20
2022-12-04T01:50:10.980Z,75.20
2022-12-04T01:52:39.366Z,75.20
2022-12-04T01:55:07.316Z,75.20
2022-12-04T01:57:35.787Z,75.20
2022-12-04T02:00:08.838Z,75.30
2022-12-04T02:02:40.180Z,75.40
2022-12-04T02:05:08.557Z,75.30
2022-12-04T02:07:35.999Z,75.40
2022-12-04T02:10:08.888Z,75.50
2022-12-04T02:12:41.266Z,75.50
2022-12-04T02:15:08.217Z,75.50
2022-12-04T02:17:54.088Z,75.50
2022-12-04T02:20:37.210Z,75.50
2022-12-04T02:23:19.683Z,75.50
2022-12-04T02:26:19.167Z,75.50
2022-12-04T02:29:05.142Z,75.60
2022-12-04T02:31:35.180Z,75.60
2022-12-04T02:34:20.664Z,75.60
2022-12-04T02:36:50.243Z,75.70
2022-12-04T02:39:23.218Z,75.70
2022-12-04T02:41:50.142Z,75.80
2022-12-04T02:44:26.017Z,75.80
2022-12-04T02:53:30.696Z,75.90
2022-12-04T02:56:00.249Z,75.90
2022-12-04T02:58:47.166Z,76.00
2022-12-04T03:01:21.503Z,76.00
2022-12-04T03:03:51.350Z,76.00
2022-12-04T03:06:19.125Z,76.00
2022-12-04T03:08:47.640Z,76.00
2022-12-04T03:11:14.491Z,76.10
2022-12-04T03:13:43.740Z,76.00
2022-12-04T03:16:13.783Z,76.00
2022-12-04T03:18:42.541Z,76.00
2022-12-04T03:21:12.024Z,76.00
2022-12-04T03:23:44.358Z,76.00
2022-12-04T03:26:15.710Z,76.10
2022-12-04T03:28:51.429Z,76.10
2022-12-04T03:31:21.777Z,76.10
2022-12-04T03:33:49.084Z,76.20
2022-12-04T03:36:21.827Z,76.10
2022-12-04T03:38:53.167Z,76.10
2022-12-04T03:41:22.891Z,76.20
2022-12-04T03:44:12.379Z,76.20
2022-12-04T03:46:54.864Z,76.20
2022-12-04T03:49:26.344Z,76.20
2022-12-04T03:52:00.654Z,76.30
2022-12-04T03:54:32.332Z,76.20
2022-12-04T03:57:05.405Z,76.20
2022-12-04T03:59:40.552Z,76.20
2022-12-04T04:02:10.365Z,76.20
2022-12-04T04:04:39.435Z,76.30
2022-12-04T04:07:12.188Z,76.30
2022-12-04T04:09:40.686Z,76.30
2022-12-04T04:12:14.111Z,76.30
2022-12-04T04:15:11.875Z,76.30
2022-12-04T04:17:59.518Z,76.30
2022-12-04T04:20:53.245Z,76.40
2022-12-04T04:23:39.789Z,76.40
2022-12-04T04:26:06.846Z,76.40
2022-12-04T04:28:40.605Z,76.50
2022-12-04T04:31:21.253Z,76.50
2022-12-04T04:34:12.520Z,76.50
2022-12-04T04:37:00.465Z,76.60
2022-12-04T04:39:42.713Z,76.60
2022-12-04T04:42:09.407Z,76.60
2022-12-04T04:44:46.450Z,76.70
2022-12-04T04:47:20.250Z,76.80
2022-12-04T04:49:49.949Z,76.80
2022-12-04T04:52:20.198Z,76.80
2022-12-04T04:54:47.542Z,76.70
2022-12-04T04:57:24.978Z,76.70
2022-12-04T04:59:51.679Z,76.70
2022-12-04T05:02:18.384Z,76.80
2022-12-04T05:04:45.089Z,76.70
2022-12-04T05:07:11.781Z,76.60
2022-12-04T05:09:41.394Z,76.60
2022-12-04T05:12:08.615Z,76.60
2022-12-04T05:14:35.351Z,76.60
2022-12-04T05:17:07.889Z,76.60
2022-12-04T05:19:54.518Z,76.50
2022-12-04T05:22:32.172Z,76.50
2022-12-04T05:24:59.174Z,76.60
2022-12-04T05:27:26.648Z,76.40
2022-12-04T05:29:54.667Z,76.40
2022-12-04T05:32:22.918Z,76.40
2022-12-04T05:34:50.385Z,76.40
2022-12-04T05:37:17.140Z,76.40
2022-12-04T05:39:43.890Z,76.40
2022-12-04T05:42:10.681Z,76.40
2022-12-04T05:44:37.335Z,76.40
2022-12-04T05:47:04.103Z,76.30
2022-12-04T05:49:31.564Z,76.30
2022-12-04T05:51:58.308Z,76.20
2022-12-04T05:54:25.125Z,76.20
2022-12-04T05:56:51.872Z,76.10
2022-12-04T05:59:18.569Z,76.10
2022-12-04T06:01:45.617Z,76.20
2022-12-04T06:04:12.365Z,76.10
2022-12-04T06:06:39.246Z,76.10
2022-12-04T06:09:07.369Z,76.10
2022-12-04T06:11:35.783Z,76.00
2022-12-04T06:14:03.308Z,75.90
2022-12-04T06:16:31.012Z,75.90
2022-12-04T06:18:59.572Z,75.70
2022-12-04T06:21:28.494Z,75.80
2022-12-04T06:23:55.600Z,75.80
2022-12-04T06:26:22.717Z,75.60
2022-12-04T06:28:49.409Z,75.50
2022-12-04T06:31:16.734Z,75.30
2022-12-04T06:33:43.446Z,75.30
2022-12-04T06:36:14.182Z,75.20
2022-12-04T06:38:41.122Z,75.30
2022-12-04T06:41:08.939Z,75.40
2022-12-04T06:43:36.089Z,75.40
2022-12-04T06:46:07.743Z,75.40
2022-12-04T06:48:34.458Z,75.40
2022-12-04T06:51:05.385Z,75.50
2022-12-04T06:53:32.804Z,75.60
2022-12-04T06:56:00.411Z,75.60
2022-12-04T06:58:27.654Z,75.70
2022-12-04T07:00:54.940Z,75.70
2022-12-04T07:03:22.220Z,75.60
2022-12-04T07:05:48.933Z,75.60
2022-12-04T07:08:16.090Z,75.60
2022-12-04T07:10:43.191Z,75.70
2022-12-04T07:13:10.446Z,75.50
2022-12-04T07:15:37.637Z,75.40
2022-12-04T07:18:04.576Z,75.40
2022-12-04T07:20:31.495Z,75.50
2022-12-04T07:23:01.517Z,75.40
2022-12-04T07:25:32.363Z,75.30
2022-12-04T07:27:59.110Z,75.20
2022-12-04T07:30:25.876Z,75.10
2022-12-04T07:32:52.570Z,75.00
2022-12-04T07:35:19.235Z,75.00
2022-12-04T07:37:45.957Z,74.90
2022-12-04T07:40:13.029Z,75.00
2022-12-04T07:42:39.713Z,75.20
2022-12-04T07:45:06.605Z,75.50
2022-12-04T07:47:34.841Z,75.30
2022-12-04T07:50:01.511Z,75.30
2022-12-04T07:52:28.201Z,75.20
2022-12-04T07:54:54.922Z,75.10
2022-12-04T07:57:21.609Z,75.20
2022-12-04T07:59:48.273Z,75.30
2022-12-04T08:02:14.960Z,75.30
2022-12-04T08:04:41.741Z,75.30
2022-12-04T08:07:08.514Z,75.30
2022-12-04T08:09:35.246Z,75.40
2022-12-04T08:12:01.943Z,75.40
2022-12-04T08:14:28.635Z,75.50
2022-12-04T08:16:55.380Z,75.50
2022-12-04T08:19:22.455Z,75.60
2022-12-04T08:21:49.203Z,75.60
2022-12-04T08:24:15.963Z,75.60
2022-12-04T08:26:42.676Z,75.70
2022-12-04T08:29:09.380Z,75.60
2022-12-04T08:31:36.245Z,75.50
2022-12-04T08:34:05.270Z,75.60
2022-12-04T08:36:32.539Z,75.70
2022-12-04T08:38:59.502Z,75.60
2022-12-04T08:41:27.349Z,75.50
2022-12-04T08:43:55.936Z,75.50
2022-12-04T08:46:24.927Z,75.50
2022-12-04T08:48:52.141Z,75.70
2022-12-04T08:51:21.868Z,75.80
2022-12-04T08:53:52.402Z,75.80
2022-12-04T08:56:19.203Z,75.80
2022-12-04T08:58:45.939Z,75.70
2022-12-04T09:01:14.757Z,75.60
2022-12-04T09:03:42.267Z,75.60
2022-12-04T09:06:10.830Z,75.50
2022-12-04T09:08:38.082Z,75.50
2022-12-04T09:11:10.852Z,75.60
2022-12-04T09:13:38.370Z,75.50
2022-12-04T09:16:07.754Z,75.50
2022-12-04T09:18:35.809Z,75.50
2022-12-04T09:21:05.945Z,75.50
2022-12-04T09:23:34.969Z,75.50
2022-12-04T09:26:02.629Z,75.50
2022-12-04T09:28:29.626Z,75.50
2022-12-04T09:30:58.754Z,75.40
2022-12-04T09:33:25.585Z,75.30
2022-12-04T09:35:52.321Z,75.30
2022-12-04T09:38:19.477Z,75.30
2022-12-04T09:41:09.505Z,75.40
2022-12-04T09:43:39.338Z,75.40
2022-12-04T09:46:15.445Z,75.30
2022-12-04T09:48:44.850Z,75.30
2022-12-04T09:51:18.743Z,75.30
2022-12-04T09:53:50.724Z,75.30
2022-12-04T09:56:19.972Z,75.30
2022-12-04T09:58:59.958Z,75.10
2022-12-04T10:01:41.768Z,75.10
2022-12-04T10:04:09.647Z,75.00
2022-12-04T10:06:42.416Z,75.10
2022-12-04T10:09:16.979Z,75.00
2022-12-04T10:12:00.473Z,75.00
2022-12-04T10:14:33.459Z,74.90
2022-12-04T10:17:30.998Z,75.00
2022-12-04T10:20:07.551Z,75.10
2022-12-04T10:22:37.286Z,75.20
2022-12-04T10:25:07.097Z,75.20
2022-12-04T10:27:37.973Z,75.40
2022-12-04T10:30:13.626Z,75.30
2022-12-04T10:32:43.872Z,75.20
2022-12-04T10:35:19.651Z,75.20
2022-12-04T10:37:48.368Z,75.20
2022-12-04T10:40:28.216Z,75.10
2022-12-04T10:43:00.761Z,75.10
2022-12-04T10:45:27.926Z,75.00
2022-12-04T10:47:54.725Z,75.00
2022-12-04T10:50:23.189Z,74.90
2022-12-04T10:52:50.231Z,74.80
2022-12-04T10:55:27.542Z,74.80
2022-12-04T10:57:54.275Z,74.70
2022-12-04T11:00:21.135Z,74.60
2022-12-04T11:02:47.934Z,74.80
2022-12-04T11:05:34.816Z,74.80
2022-12-04T11:08:03.413Z,74.80
2022-12-04T11:10:33.294Z,74.60
2022-12-04T11:13:21.109Z,74.60
2022-12-04T11:15:49.086Z,74.60
2022-12-04T11:18:26.287Z,74.60
2022-12-04T11:21:19.451Z,74.60
2022-12-04T11:23:47.575Z,74.60
2022-12-04T11:26:14.949Z,74.60
2022-12-04T11:28:45.402Z,74.60
2022-12-04T11:31:18.170Z,74.50
2022-12-04T11:33:46.587Z,74.60
2022-12-04T11:36:42.657Z,74.70
2022-12-04T11:39:20.438Z,74.70
2022-12-04T11:41:47.210Z,74.80
2022-12-04T11:44:27.130Z,74.80
2022-12-04T11:46:54.991Z,74.90
2022-12-04T11:49:22.877Z,75.00
2022-12-04T11:51:58.681Z,75.00
2022-12-04T11:54:25.352Z,75.20
2022-12-04T11:57:01.482Z,75.20
2022-12-04T11:59:28.193Z,75.20
2022-12-04T12:01:58.733Z,75.20
2022-12-04T12:04:34.658Z,75.40
2022-12-04T12:07:11.375Z,75.40
2022-12-04T12:09:41.913Z,75.40
2022-12-04T12:12:38.380Z,75.50
2022-12-04T12:15:15.830Z,75.50
2022-12-04T12:17:42.477Z,75.40
2022-12-04T12:20:24.627Z,75.40
2022-12-04T12:23:02.322Z,75.50
2022-12-04T12:25:53.874Z,75.60
2022-12-04T12:29:00.068Z,75.60
2022-12-04T12:32:04.473Z,75.60
2022-12-04T12:34:45.715Z,75.80
2022-12-04T12:37:44.026Z,75.80
2022-12-04T12:40:20.118Z,76.00
2022-12-04T12:42:58.530Z,76.00
2022-12-04T12:45:33.760Z,76.10
2022-12-04T12:48:15.167Z,76.20
2022-12-04T12:50:58.254Z,76.30
2022-12-04T12:53:40.902Z,76.30
2022-12-04T12:56:13.049Z,76.30
2022-12-04T12:58:57.169Z,76.20
2022-12-04T13:01:47.297Z,76.20
2022-12-04T13:04:35.573Z,76.30
2022-12-04T13:07:15.269Z,76.30
2022-12-04T13:09:48.265Z,76.40
2022-12-04T13:12:16.917Z,76.40
2022-12-04T13:14:48.876Z,76.30
2022-12-04T13:17:36.280Z,76.40
2022-12-04T13:20:10.392Z,76.50
2022-12-04T13:22:43.126Z,76.40
2022-12-04T13:25:41.175Z,76.40
2022-12-04T13:28:36.470Z,76.50
2022-12-04T13:31:34.689Z,76.60
2022-12-04T13:34:07.044Z,76.60
2022-12-04T13:36:55.256Z,76.60
2022-12-04T13:39:24.774Z,76.60
2022-12-04T13:42:04.294Z,76.60
2022-12-04T13:44:32.538Z,76.70
2022-12-04T13:47:02.735Z,76.70
2022-12-04T13:49:31.968Z,76.70
2022-12-04T13:52:00.523Z,76.70
2022-12-04T13:54:31.243Z,76.70
2022-12-04T13:57:17.230Z,76.70
2022-12-04T13:59:45.086Z,76.70
2022-12-04T14:02:35.462Z,76.60
2022-12-04T14:05:03.667Z,76.60
2022-12-04T14:07:35.288Z,76.60
2022-12-04T14:10:06.295Z,76.60
2022-12-04T14:12:37.609Z,76.50
2022-12-04T14:15:11.645Z,76.50
2022-12-04T14:17:40.011Z,76.40
2022-12-04T14:20:25.297Z,76.40
2022-12-04T14:22:52.086Z,76.30
2022-12-04T14:25:18.827Z,76.30
2022-12-04T14:27:51.878Z,76.30
2022-12-04T14:30:25.666Z,76.30
2022-12-04T14:32:56.512Z,76.30
2022-12-04T14:35:25.891Z,76.30
2022-12-04T14:38:04.483Z,76.20
2022-12-04T14:40:42.621Z,76.30
2022-12-04T14:43:24.602Z,76.30
2022-12-04T14:45:56.703Z,76.30
2022-12-04T14:48:28.953Z,76.30
2022-12-04T14:51:14.682Z,76.30
2022-12-04T14:54:00.635Z,76.30
2022-12-04T14:56:45.458Z,76.20
2022-12-04T14:59:17.007Z,76.20
2022-12-04T15:01:45.406Z,76.20
2022-12-04T15:04:14.900Z,76.10
2022-12-04T15:06:41.821Z,76.10
2022-12-04T15:09:36.234Z,76.10
2022-12-04T15:12:32.177Z,76.10
2022-12-04T15:15:01.307Z,76.00
2022-12-04T15:17:27.982Z,76.00
2022-12-04T15:19:54.772Z,76.00
2022-12-04T15:22:23.531Z,76.00
2022-12-04T15:24:50.771Z,76.00
2022-12-04T15:27:19.622Z,75.90
2022-12-04T15:29:49.128Z,75.80
2022-12-04T15:32:17.425Z,75.80
2022-12-04T15:34:47.651Z,75.80
2022-12-04T15:37:22.869Z,75.80
2022-12-04T15:39:52.363Z,75.80
2022-12-04T15:42:22.438Z,75.80
2022-12-04T15:45:01.279Z,75.80
2022-12-04T15:47:28.229Z,75.70
2022-12-04T15:49:55.921Z,75.70
2022-12-04T15:52:23.679Z,75.70
2022-12-04T15:54:56.684Z,75.70
2022-12-04T15:57:30.835Z,75.80
2022-12-04T16:00:01.276Z,75.70
2022-12-04T16:02:32.717Z,75.70
2022-12-04T16:05:13.733Z,75.70
2022-12-04T16:07:53.734Z,75.70
2022-12-04T16:10:26.929Z,75.70
2022-12-04T16:18:23.939Z,75.70
2022-12-04T16:20:51.256Z,75.70
2022-12-04T16:23:18.507Z,75.80
2022-12-04T16:25:46.684Z,75.80
2022-12-04T16:28:16.108Z,75.80
2022-12-04T16:30:43.512Z,75.80
2022-12-04T16:33:15.061Z,75.90
2022-12-04T16:35:42.696Z,75.80
2022-12-04T16:49:07.242Z,76.00
2022-12-04T16:51:37.393Z,76.10
2022-12-04T16:54:04.273Z,76.20
2022-12-04T16:56:31.050Z,76.30
2022-12-04T16:58:57.957Z,76.30
2022-12-04T17:01:29.549Z,76.30
2022-12-04T17:03:56.520Z,76.30
2022-12-04T17:06:23.342Z,76.30
2022-12-04T17:08:50.177Z,76.40
2022-12-04T17:11:17.780Z,76.60
2022-12-04T17:13:44.976Z,76.50
2022-12-04T17:16:14.774Z,76.40
2022-12-04T17:18:43.114Z,76.50
2022-12-04T17:21:12.491Z,76.50
2022-12-04T17:23:39.760Z,76.50
2022-12-04T17:26:09.007Z,76.50
2022-12-04T17:28:39.202Z,76.60
2022-12-04T17:31:13.630Z,76.50
2022-12-04T17:33:40.407Z,76.50
2022-12-04T17:36:17.652Z,76.60
2022-12-04T17:38:44.817Z,76.60
2022-12-04T17:41:15.413Z,76.60
2022-12-04T17:43:43.125Z,76.60
2022-12-04T17:46:10.835Z,76.60
2022-12-04T17:48:37.994Z,76.60
2022-12-04T17:51:15.149Z,76.60
2022-12-04T17:53:42.038Z,76.70
2022-12-04T17:56:12.913Z,76.80
2022-12-04T17:58:40.068Z,76.90
2022-12-04T18:01:08.597Z,77.00
2022-12-04T18:03:35.789Z,76.90
2022-12-04T18:06:16.390Z,76.90
2022-12-04T18:08:49.590Z,76.80
2022-12-04T18:11:18.782Z,76.80
2022-12-04T18:13:45.451Z,77.00
2022-12-04T18:16:12.235Z,76.90
2022-12-04T18:18:39.057Z,77.00
2022-12-04T18:21:09.975Z,77.00
2022-12-04T18:23:37.506Z,77.00
2022-12-04T18:26:04.933Z,77.00
2022-12-04T18:28:31.672Z,77.00
2022-12-04T18:31:05.651Z,76.90
2022-12-04T18:33:33.065Z,77.00
2022-12-04T18:36:00.154Z,77.30
2022-12-04T18:38:27.963Z,77.20
2022-12-04T18:40:54.716Z,77.10
2022-12-04T18:43:21.836Z,77.10
2022-12-04T18:45:57.627Z,77.10
2022-12-04T18:48:26.352Z,77.10
2022-12-04T18:50:53.118Z,77.30
2022-12-04T18:53:19.923Z,77.30
2022-12-04T18:55:46.749Z,77.40
2022-12-04T18:58:13.438Z,77.40
2022-12-04T19:00:40.196Z,77.50
2022-12-04T19:03:07.100Z,77.70
2022-12-04T19:05:34.499Z,77.70
2022-12-04T19:08:01.257Z,77.90
2022-12-04T19:10:28.552Z,77.90
2022-12-04T19:12:55.584Z,77.80
2022-12-04T19:15:22.456Z,77.90
2022-12-04T19:17:49.145Z,78.00
2022-12-04T19:20:18.226Z,78.00
2022-12-04T19:22:45.145Z,78.00
2022-12-04T19:25:11.946Z,78.10
2022-12-04T19:27:38.624Z,78.20
2022-12-04T19:30:06.128Z,78.30
2022-12-04T19:32:33.231Z,78.50
2022-12-04T19:35:00.068Z,78.50
2022-12-04T19:37:26.864Z,78.40
2022-12-04T19:39:53.698Z,78.40
2022-12-04T19:42:20.424Z,78.50
2022-12-04T19:44:48.712Z,78.50
2022-12-04T19:47:16.573Z,78.60
2022-12-04T19:49:43.253Z,78.70
2022-12-04T19:52:10.048Z,78.80
2022-12-04T19:54:36.871Z,78.70
2022-12-04T19:57:03.690Z,78.70
2022-12-04T19:59:35.980Z,78.80
2022-12-04T20:02:03.917Z,78.70
2022-12-04T20:04:30.660Z,78.70
2022-12-04T20:06:57.412Z,78.80
2022-12-04T20:09:25.314Z,78.80
2022-12-04T20:11:52.036Z,78.80
2022-12-04T20:14:18.997Z,78.90
2022-12-04T20:16:46.371Z,78.90
2022-12-04T20:19:14.679Z,79.00
2022-12-04T20:21:41.489Z,78.90
2022-12-04T20:24:10.756Z,78.90
2022-12-04T20:26:38.461Z,79.00
2022-12-04T20:29:06.470Z,79.10
2022-12-04T20:31:34.697Z,79.10
2022-12-04T20:34:03.247Z,79.20
2022-12-04T20:36:30.851Z,79.30
2022-12-04T20:38:58.346Z,79.20
2022-12-04T20:41:25.776Z,79.30
2022-12-04T20:43:52.542Z,79.30
2022-12-04T20:46:23.639Z,79.30
2022-12-04T20:48:56.330Z,79.30
2022-12-04T20:51:26.720Z,79.40
2022-12-04T20:53:54.189Z,79.50
2022-12-04T20:56:21.996Z,79.50
2022-12-04T20:58:48.876Z,79.50
2022-12-04T21:01:16.860Z,79.50
2022-12-04T21:03:43.998Z,79.50
2022-12-04T21:06:12.221Z,79.60
2022-12-04T21:08:54.296Z,79.60
2022-12-04T21:11:21.811Z,79.60
2022-12-04T21:14:06.945Z,79.60
2022-12-04T21:16:33.964Z,79.60
2022-12-04T21:19:01.626Z,79.70
2022-12-04T21:21:28.464Z,79.70
2022-12-04T21:23:55.249Z,79.70
2022-12-04T21:26:22.309Z,79.70
2022-12-04T21:28:49.011Z,79.70
2022-12-04T21:31:15.766Z,79.70
2022-12-04T21:33:42.502Z,79.60
2022-12-04T21:36:12.276Z,79.70
2022-12-04T21:38:39.712Z,79.90
2022-12-04T21:41:07.715Z,79.80
2022-12-04T21:43:35.325Z,79.70
2022-12-04T21:46:08.951Z,79.60
2022-12-04T21:48:37.172Z,79.60
2022-12-04T21:51:13.256Z,79.60
2022-12-04T21:53:54.812Z,79.60
2022-12-04T21:56:22.003Z,79.50
2022-12-04T21:58:48.899Z,79.50
2022-12-04T22:01:16.781Z,79.50
2022-12-04T22:03:44.203Z,79.50
2022-12-04T22:06:11.177Z,79.50
2022-12-04T22:08:40.957Z,79.40
2022-12-04T22:11:09.179Z,79.40
2022-12-04T22:13:36.403Z,79.50
2022-12-04T22:16:04.433Z,79.50
2022-12-04T22:18:31.327Z,79.50
2022-12-04T22:20:58.131Z,79.50
2022-12-04T22:23:24.899Z,79.50
2022-12-04T22:25:51.646Z,79.70
2022-12-04T22:28:18.558Z,79.70
2022-12-04T22:30:46.492Z,79.70
2022-12-04T22:33:13.225Z,79.70
2022-12-04T22:35:39.961Z,79.60
2022-12-04T22:38:06.670Z,79.70
2022-12-04T22:40:33.353Z,79.60
2022-12-04T22:43:00.010Z,79.70
2022-12-04T22:45:27.159Z,79.70
2022-12-04T22:47:53.933Z,79.70
2022-12-04T22:50:20.648Z,79.80
2022-12-04T22:52:47.308Z,79.80
2022-12-04T22:55:13.988Z,79.90
2022-12-04T22:57:40.709Z,80.10
2022-12-04T23:00:09.304Z,80.00
2022-12-04T23:02:36.143Z,80.00
2022-12-04T23:05:02.985Z,80.10
2022-12-04T23:07:29.760Z,80.00
2022-12-04T23:09:56.739Z,80.00
2022-12-04T23:12:25.370Z,80.00
2022-12-04T23:14:52.223Z,80.00
2022-12-04T23:17:18.934Z,80.00
2022-12-04T23:19:45.639Z,80.10
2022-12-04T23:22:12.325Z,80.10
2022-12-04T23:24:39.134Z,80.10
2022-12-04T23:27:05.821Z,80.20
2022-12-04T23:32:19.278Z,80.20
2022-12-04T23:34:46.056Z,80.30
2022-12-04T23:37:12.815Z,80.30
2022-12-04T23:39:39.476Z,80.30
2022-12-04T23:42:06.413Z,80.30
2022-12-04T23:44:33.078Z,80.20
2022-12-04T23:46:59.870Z,80.20
2022-12-04T23:49:26.661Z,80.20
2022-12-04T23:51:53.496Z,80.10
2022-12-04T23:54:20.164Z,80.10
2022-12-04T23:56:46.854Z,80.10
2022-12-04T23:59:13.678Z,80.10
